createdAt,value
2022-09-24T00:01:16.302Z,95360.13
2022-09-24T00:03:47.956Z,95351.06
2022-09-24T00:06:14.508Z,95354.03
2022-09-24T00:08:42.182Z,95350.38
2022-09-24T00:11:12.003Z,95353.44
2022-09-24T00:13:40.193Z,95330.41
2022-09-24T00:16:10.757Z,95346.63
2022-09-24T00:18:38.186Z,95342.06
2022-09-24T00:21:31.857Z,95346.63
2022-09-24T00:24:01.181Z,95352.13
2022-09-24T00:26:46.626Z,95332.53
2022-09-24T00:29:16.843Z,95349.09
2022-09-24T00:31:43.505Z,95350.41
2022-09-24T00:34:10.554Z,95349.63
2022-09-24T00:36:37.596Z,95350.75
2022-09-24T00:39:05.211Z,95329.41
2022-09-24T00:41:34.234Z,95343.69
2022-09-24T00:44:01.244Z,95342.78
2022-09-24T00:46:39.417Z,95342.72
2022-09-24T00:49:14.924Z,95344.72
2022-09-24T00:51:43.968Z,95340.56
2022-09-24T00:54:16.666Z,95344.50
2022-09-24T00:56:44.829Z,95342.63
2022-09-24T00:59:16.964Z,95327.38
2022-09-24T01:01:45.320Z,95339.19
2022-09-24T01:04:13.937Z,95343.78
2022-09-24T01:06:40.744Z,95337.47
2022-09-24T01:09:08.199Z,95337.63
2022-09-24T01:12:14.548Z,95338.97
2022-09-24T01:15:36.460Z,95337.53
2022-09-24T01:18:35.531Z,95341.44
2022-09-24T01:21:10.953Z,95333.84
2022-09-24T01:23:49.320Z,95334.19
2022-09-24T01:26:39.463Z,95338.88
2022-09-24T01:29:43.805Z,95335.00
2022-09-24T01:32:30.168Z,95337.72
2022-09-24T01:35:05.294Z,95340.69
2022-09-24T01:37:34.950Z,95333.75
2022-09-24T01:40:03.439Z,95340.22
2022-09-24T01:42:31.206Z,95347.97
2022-09-24T01:44:58.348Z,95340.69
2022-09-24T01:47:40.150Z,95344.09
2022-09-24T01:50:09.941Z,95343.34
2022-09-24T01:52:56.771Z,95357.06
2022-09-24T01:55:27.376Z,95352.13
2022-09-24T01:57:58.784Z,95339.03
2022-09-24T02:00:27.018Z,95355.53
2022-09-24T02:03:13.299Z,95352.88
2022-09-24T02:05:58.735Z,95360.19
2022-09-24T02:08:33.265Z,95364.97
2022-09-24T02:11:08.231Z,95362.88
2022-09-24T02:13:43.125Z,95354.25
2022-09-24T02:16:14.706Z,95367.56
2022-09-24T02:18:44.019Z,95366.44
2022-09-24T02:21:15.077Z,95364.22
2022-09-24T02:23:51.330Z,95376.44
2022-09-24T02:26:17.983Z,95363.78
2022-09-24T02:28:45.587Z,95375.69
2022-09-24T02:31:16.400Z,95372.00
2022-09-24T02:34:04.917Z,95371.75
2022-09-24T02:36:31.991Z,95373.41
2022-09-24T02:38:58.855Z,95376.53
2022-09-24T02:41:27.057Z,95383.09
2022-09-24T02:43:54.055Z,95378.06
2022-09-24T02:46:20.644Z,95387.84
2022-09-24T02:48:47.253Z,95379.94
2022-09-24T02:51:13.943Z,95384.66
2022-09-24T02:53:40.474Z,95393.38
2022-09-24T02:56:08.034Z,95396.13
2022-09-24T02:58:35.358Z,95400.19
2022-09-24T03:01:01.976Z,95407.16
2022-09-24T03:03:28.593Z,95407.19
2022-09-24T03:05:55.227Z,95409.94
2022-09-24T03:08:24.223Z,95406.88
2022-09-24T03:10:51.382Z,95392.38
2022-09-24T03:13:18.999Z,95401.97
2022-09-24T03:15:46.428Z,95399.25
2022-09-24T03:18:14.305Z,95405.16
2022-09-24T03:20:41.209Z,95410.97
2022-09-24T03:23:07.744Z,95418.72
2022-09-24T03:25:34.422Z,95414.91
2022-09-24T03:28:01.156Z,95410.63
2022-09-24T03:30:46.521Z,95415.56
2022-09-24T03:33:13.851Z,95412.16
2022-09-24T03:35:40.508Z,95414.38
2022-09-24T03:38:07.110Z,95413.31
2022-09-24T03:40:33.965Z,95409.06
2022-09-24T03:43:00.615Z,95417.41
2022-09-24T03:45:27.192Z,95417.94
2022-09-24T03:47:53.773Z,95408.59
2022-09-24T03:50:20.308Z,95419.25
2022-09-24T03:52:46.845Z,95425.38
2022-09-24T03:55:13.382Z,95415.84
2022-09-24T03:57:39.933Z,95419.59
2022-09-24T04:00:06.985Z,95422.28
2022-09-24T04:02:33.607Z,95422.63
2022-09-24T04:05:00.230Z,95426.91
2022-09-24T04:07:26.795Z,95422.94
2022-09-24T04:09:53.381Z,95427.06
2022-09-24T04:12:20.644Z,95424.25
2022-09-24T04:14:47.209Z,95426.94
2022-09-24T04:17:15.043Z,95428.47
2022-09-24T04:19:41.590Z,95421.66
2022-09-24T04:22:08.702Z,95417.41
2022-09-24T04:24:35.303Z,95433.50
2022-09-24T04:27:01.842Z,95440.06
2022-09-24T04:29:28.361Z,95449.28
2022-09-24T04:31:55.023Z,95438.00
2022-09-24T04:34:21.607Z,95439.16
2022-09-24T04:36:48.134Z,95449.81
2022-09-24T04:39:15.638Z,95446.56
2022-09-24T04:41:42.252Z,95433.09
2022-09-24T04:44:08.896Z,95439.91
2022-09-24T04:46:35.579Z,95442.13
2022-09-24T04:49:02.265Z,95446.28
2022-09-24T04:51:28.860Z,95452.81
2022-09-24T04:53:55.510Z,95448.56
2022-09-24T04:56:22.238Z,95449.94
2022-09-24T04:58:51.177Z,95451.41
2022-09-24T05:01:18.343Z,95454.16
2022-09-24T05:03:45.428Z,95441.22
2022-09-24T05:06:12.591Z,95454.34
2022-09-24T05:08:39.173Z,95444.25
2022-09-24T05:11:05.955Z,95450.34
2022-09-24T05:13:32.513Z,95448.94
2022-09-24T05:16:01.172Z,95439.66
2022-09-24T05:18:28.226Z,95436.78
2022-09-24T05:20:54.899Z,95440.84
2022-09-24T05:23:21.730Z,95435.13
2022-09-24T05:26:06.738Z,95438.97
2022-09-24T05:28:33.418Z,95443.84
2022-09-24T05:31:00.400Z,95447.44
2022-09-24T05:33:27.051Z,95447.03
2022-09-24T05:35:58.116Z,95461.47
2022-09-24T05:38:24.773Z,95461.31
2022-09-24T05:40:51.544Z,95453.22
2022-09-24T05:43:21.931Z,95455.03
2022-09-24T05:45:50.189Z,95470.03
2022-09-24T05:48:17.240Z,95477.03
2022-09-24T05:50:43.815Z,95464.28
2022-09-24T05:53:11.003Z,95458.72
2022-09-24T05:55:37.617Z,95466.69
2022-09-24T05:58:10.849Z,95462.09
2022-09-24T06:00:37.749Z,95473.34
2022-09-24T06:03:12.719Z,95470.41
2022-09-24T06:05:43.514Z,95478.13
2022-09-24T06:08:10.117Z,95483.03
2022-09-24T06:10:36.635Z,95478.38
2022-09-24T06:13:03.766Z,95481.16
2022-09-24T06:15:31.033Z,95476.22
2022-09-24T06:17:57.751Z,95485.78
2022-09-24T06:20:24.424Z,95479.19
2022-09-24T06:22:51.142Z,95484.91
2022-09-24T06:25:17.729Z,95475.41
2022-09-24T06:27:44.338Z,95490.41
2022-09-24T06:30:11.993Z,95503.03
2022-09-24T06:32:38.587Z,95493.28
2022-09-24T06:35:06.167Z,95489.59
2022-09-24T06:37:34.080Z,95487.84
2022-09-24T06:40:01.906Z,95485.22
2022-09-24T06:42:28.540Z,95480.41
2022-09-24T06:44:55.085Z,95493.34
2022-09-24T06:47:21.702Z,95484.16
2022-09-24T06:49:50.278Z,95486.66
2022-09-24T06:52:16.901Z,95487.75
2022-09-24T06:54:43.599Z,95492.72
2022-09-24T06:57:10.154Z,95478.59
2022-09-24T06:59:36.811Z,95475.66
2022-09-24T07:02:03.542Z,95483.28
2022-09-24T07:04:30.268Z,95490.34
2022-09-24T07:07:15.473Z,95465.97
2022-09-24T07:09:42.110Z,95485.19
2022-09-24T07:12:08.909Z,95496.72
2022-09-24T07:14:35.585Z,95484.75
2022-09-24T07:17:02.251Z,95487.97
2022-09-24T07:19:28.961Z,95480.94
2022-09-24T07:21:55.553Z,95484.16
2022-09-24T07:24:22.120Z,95476.38
2022-09-24T07:26:48.692Z,95479.44
2022-09-24T07:29:15.407Z,95457.56
2022-09-24T07:31:42.375Z,95486.06
2022-09-24T07:34:09.157Z,95484.13
2022-09-24T07:36:36.011Z,95480.94
2022-09-24T07:39:02.633Z,95469.22
2022-09-24T07:41:30.307Z,95478.34
2022-09-24T07:43:56.956Z,95477.75
2022-09-24T07:46:24.793Z,95473.28
2022-09-24T07:48:58.521Z,95468.59
2022-09-24T07:51:28.521Z,95470.16
2022-09-24T07:53:56.480Z,95470.56
2022-09-24T07:56:24.682Z,95453.88
2022-09-24T07:58:52.291Z,95477.56
2022-09-24T08:01:19.926Z,95473.63
2022-09-24T08:03:46.942Z,95458.91
2022-09-24T08:06:13.638Z,95472.88
2022-09-24T08:08:40.366Z,95469.56
2022-09-24T08:11:09.018Z,95472.13
2022-09-24T08:13:35.647Z,95470.91
2022-09-24T08:16:04.834Z,95472.56
2022-09-24T08:18:32.970Z,95462.41
2022-09-24T08:21:04.391Z,95473.34
2022-09-24T08:23:32.430Z,95469.09
2022-09-24T08:25:59.034Z,95454.47
2022-09-24T08:28:27.003Z,95460.69
2022-09-24T08:31:00.788Z,95449.53
2022-09-24T08:33:28.678Z,95451.25
2022-09-24T08:35:56.195Z,95454.00
2022-09-24T08:38:23.001Z,95449.00
2022-09-24T08:41:06.199Z,95450.31
2022-09-24T08:43:35.354Z,95438.34
2022-09-24T08:46:31.227Z,95447.34
2022-09-24T08:48:59.935Z,95448.84
2022-09-24T08:51:33.322Z,95434.75
2022-09-24T08:54:10.250Z,95426.88
2022-09-24T08:56:42.306Z,95424.50
2022-09-24T08:59:13.413Z,95444.34
2022-09-24T09:01:56.157Z,95429.38
2022-09-24T09:05:00.407Z,95423.34
2022-09-24T09:07:32.688Z,95423.63
2022-09-24T09:10:01.219Z,95422.31
2022-09-24T09:12:53.375Z,95416.13
2022-09-24T09:15:33.944Z,95409.94
2022-09-24T09:18:34.119Z,95399.53
2022-09-24T09:21:15.975Z,95404.91
2022-09-24T09:23:50.555Z,95381.63
2022-09-24T09:26:19.442Z,95405.19
2022-09-24T09:28:47.034Z,95409.44
2022-09-24T09:32:05.736Z,95398.06
2022-09-24T09:34:35.366Z,95393.44
2022-09-24T09:37:26.131Z,95388.09
2022-09-24T09:40:12.652Z,95377.44
2022-09-24T09:42:42.785Z,95380.06
2022-09-24T09:45:27.666Z,95374.56
2022-09-24T09:47:56.970Z,95366.84
2022-09-24T09:50:44.799Z,95362.63
2022-09-24T09:53:28.383Z,95354.59
2022-09-24T09:56:00.966Z,95356.88
2022-09-24T09:58:37.827Z,95333.94
2022-09-24T10:01:07.358Z,95346.91
2022-09-24T10:03:56.594Z,95351.25
2022-09-24T10:06:28.986Z,95337.44
2022-09-24T10:09:16.903Z,95336.41
2022-09-24T10:11:43.723Z,95327.19
2022-09-24T10:14:13.965Z,95328.34
2022-09-24T10:16:43.677Z,95324.59
2022-09-24T10:19:21.877Z,95319.88
2022-09-24T10:21:50.221Z,95332.97
2022-09-24T10:24:21.414Z,95332.72
2022-09-24T10:26:48.843Z,95329.47
2022-09-24T10:29:48.918Z,95335.78
2022-09-24T10:32:22.186Z,95327.78
2022-09-24T10:34:59.627Z,95327.78
2022-09-24T10:37:28.193Z,95323.50
2022-09-24T10:40:02.830Z,95327.75
2022-09-24T10:42:30.663Z,95321.38
2022-09-24T10:45:01.406Z,95324.91
2022-09-24T10:47:34.519Z,95327.72
2022-09-24T10:50:17.684Z,95327.25
2022-09-24T10:53:16.457Z,95319.47
2022-09-24T10:56:01.919Z,95326.50
2022-09-24T10:58:31.812Z,95326.50
2022-09-24T11:01:26.408Z,95317.19
2022-09-24T11:03:53.291Z,95325.94
2022-09-24T11:06:57.831Z,95321.75
2022-09-24T11:09:31.467Z,95318.47
2022-09-24T11:12:17.981Z,95320.75
2022-09-24T11:15:14.270Z,95320.16
2022-09-24T11:18:09.927Z,95314.13
2022-09-24T11:20:44.131Z,95305.13
2022-09-24T11:23:13.481Z,95300.09
2022-09-24T11:25:51.863Z,95293.06
2022-09-24T11:28:27.725Z,95284.50
2022-09-24T11:31:28.046Z,95286.50
2022-09-24T11:34:00.436Z,95280.72
2022-09-24T11:36:29.665Z,95286.22
2022-09-24T11:38:59.753Z,95284.03
2022-09-24T11:41:36.741Z,95273.44
2022-09-24T11:44:27.145Z,95270.88
2022-09-24T11:47:39.014Z,95274.75
2022-09-24T11:50:20.406Z,95263.84
2022-09-24T11:52:54.651Z,95265.31
2022-09-24T11:55:31.713Z,95272.94
2022-09-24T11:58:34.539Z,95267.47
2022-09-24T12:01:12.359Z,95258.63
2022-09-24T12:03:41.784Z,95261.28
2022-09-24T12:06:27.847Z,95255.66
2022-09-24T12:09:04.101Z,95232.19
2022-09-24T12:11:36.950Z,95261.66
2022-09-24T12:14:17.492Z,95257.19
2022-09-24T12:16:47.748Z,95255.69
2022-09-24T12:19:20.239Z,95254.53
2022-09-24T12:21:49.181Z,95240.47
2022-09-24T12:24:39.981Z,95256.16
2022-09-24T12:27:16.460Z,95262.97
2022-09-24T12:30:23.653Z,95250.59
2022-09-24T12:33:02.355Z,95245.59
2022-09-24T12:35:28.904Z,95251.13
2022-09-24T12:38:19.166Z,95242.00
2022-09-24T12:40:56.208Z,95230.22
2022-09-24T12:43:41.169Z,95260.19
2022-09-24T12:46:18.141Z,95245.59
2022-09-24T12:48:48.423Z,95240.63
2022-09-24T12:51:16.680Z,95233.16
2022-09-24T12:53:56.685Z,95249.34
2022-09-24T12:56:29.801Z,95237.34
2022-09-24T12:58:58.869Z,95222.91
2022-09-24T13:01:25.569Z,95230.38
2022-09-24T13:04:28.925Z,95219.38
2022-09-24T13:06:56.015Z,95213.22
2022-09-24T13:09:37.005Z,95226.97
2022-09-24T13:12:15.454Z,95220.16
2022-09-24T13:14:49.257Z,95208.81
2022-09-24T13:17:18.167Z,95219.22
2022-09-24T13:19:47.141Z,95220.34
2022-09-24T13:22:27.553Z,95224.94
2022-09-24T13:25:05.737Z,95230.25
2022-09-24T13:27:32.241Z,95228.22
2022-09-24T13:30:07.219Z,95222.91
2022-09-24T13:32:43.524Z,95216.53
2022-09-24T13:35:21.816Z,95203.28
2022-09-24T13:38:09.219Z,95207.75
2022-09-24T13:40:39.975Z,95207.72
2022-09-24T13:43:20.954Z,95202.16
2022-09-24T13:45:48.270Z,95198.13
2022-09-24T13:48:38.289Z,95197.50
2022-09-24T13:51:11.455Z,95193.69
2022-09-24T13:53:52.746Z,95179.31
2022-09-24T13:56:20.155Z,95185.97
2022-09-24T13:58:47.823Z,95160.31
2022-09-24T14:01:24.602Z,95171.78
2022-09-24T14:03:54.546Z,95166.09
2022-09-24T14:06:34.841Z,95188.94
2022-09-24T14:09:01.825Z,95173.09
2022-09-24T14:11:28.502Z,95187.03
2022-09-24T14:13:56.351Z,95182.41
2022-09-24T14:16:25.102Z,95178.31
2022-09-24T14:19:06.249Z,95171.00
2022-09-24T14:21:37.120Z,95182.34
2022-09-24T14:24:14.448Z,95165.38
2022-09-24T14:26:48.985Z,95169.34
2022-09-24T14:29:22.622Z,95177.72
2022-09-24T14:31:53.764Z,95175.66
2022-09-24T14:34:33.976Z,95180.16
2022-09-24T14:37:19.043Z,95179.09
2022-09-24T14:39:48.474Z,95190.06
2022-09-24T14:42:47.690Z,95175.53
2022-09-24T14:45:27.502Z,95181.00
2022-09-24T14:48:05.312Z,95186.72
2022-09-24T14:50:36.402Z,95191.13
2022-09-24T14:53:29.657Z,95191.28
2022-09-24T14:55:57.377Z,95194.72
2022-09-24T14:58:30.105Z,95189.16
2022-09-24T15:01:03.360Z,95190.09
2022-09-24T15:04:34.081Z,95172.34
2022-09-24T15:07:03.250Z,95147.59
2022-09-24T15:09:47.958Z,95144.09
2022-09-24T15:12:34.257Z,95190.66
2022-09-24T15:15:47.159Z,95188.41
2022-09-24T15:18:17.212Z,95185.66
2022-09-24T15:20:44.327Z,95191.88
2022-09-24T15:23:10.861Z,95196.09
2022-09-24T15:25:37.516Z,95196.84
2022-09-24T15:28:04.839Z,95186.44
2022-09-24T15:30:31.432Z,95195.53
2022-09-24T15:32:59.156Z,95196.75
2022-09-24T15:35:26.425Z,95190.88
2022-09-24T15:37:53.088Z,95196.84
2022-09-24T15:40:23.058Z,95202.72
2022-09-24T15:42:50.833Z,95203.72
2022-09-24T15:45:22.693Z,95195.03
2022-09-24T15:47:50.651Z,95199.66
2022-09-24T15:50:30.835Z,95198.69
2022-09-24T15:53:26.421Z,95211.25
2022-09-24T15:56:06.809Z,95212.75
2022-09-24T15:58:56.937Z,95214.03
2022-09-24T16:01:23.660Z,95221.41
2022-09-24T16:03:50.300Z,95215.66
2022-09-24T16:06:16.870Z,95218.94
2022-09-24T16:08:43.572Z,95207.41
2022-09-24T16:11:10.165Z,95214.44
2022-09-24T16:13:36.989Z,95217.19
2022-09-24T16:16:07.856Z,95211.13
2022-09-24T16:18:35.926Z,95222.16
2022-09-24T16:21:06.519Z,95225.88
2022-09-24T16:23:33.697Z,95230.34
2022-09-24T16:26:00.619Z,95227.56
2022-09-24T16:28:28.810Z,95225.75
2022-09-24T16:30:55.802Z,95234.94
2022-09-24T16:33:25.908Z,95236.19
2022-09-24T16:35:52.657Z,95239.41
2022-09-24T16:38:22.877Z,95243.78
2022-09-24T16:40:52.187Z,95226.72
2022-09-24T16:43:18.982Z,95232.22
2022-09-24T16:45:45.701Z,95239.72
2022-09-24T16:48:13.635Z,95247.06
2022-09-24T16:50:40.239Z,95250.97
2022-09-24T16:53:06.851Z,95239.66
2022-09-24T16:55:33.513Z,95256.59
2022-09-24T16:58:00.528Z,95251.97
2022-09-24T17:00:28.572Z,95254.03
2022-09-24T17:02:56.117Z,95257.88
2022-09-24T17:05:22.783Z,95261.72
2022-09-24T17:07:49.365Z,95263.22
2022-09-24T17:10:18.719Z,95266.66
2022-09-24T17:12:48.888Z,95269.13
2022-09-24T17:15:20.002Z,95253.34
2022-09-24T17:17:52.813Z,95279.63
2022-09-24T17:20:19.912Z,95283.59
2022-09-24T17:22:48.466Z,95289.81
2022-09-24T17:25:16.319Z,95288.91
2022-09-24T17:27:42.949Z,95286.91
2022-09-24T17:30:11.029Z,95281.91
2022-09-24T17:32:37.797Z,95287.75
2022-09-24T17:35:07.680Z,95288.63
2022-09-24T17:37:34.780Z,95280.25
2022-09-24T17:40:01.477Z,95288.75
2022-09-24T17:42:28.182Z,95295.06
2022-09-24T17:44:54.912Z,95301.97
2022-09-24T17:47:21.553Z,95290.47
2022-09-24T17:49:48.183Z,95309.50
2022-09-24T17:52:15.114Z,95303.16
2022-09-24T17:54:41.809Z,95300.00
2022-09-24T17:57:08.471Z,95289.88
2022-09-24T17:59:35.354Z,95293.41
2022-09-24T18:02:02.072Z,95308.13
2022-09-24T18:04:31.378Z,95300.66
2022-09-24T18:06:57.993Z,95305.50
2022-09-24T18:09:24.919Z,95300.31
2022-09-24T18:11:52.727Z,95319.84
2022-09-24T18:14:22.263Z,95309.44
2022-09-24T18:16:49.759Z,95300.13
2022-09-24T18:19:17.561Z,95301.84
2022-09-24T18:21:45.826Z,95314.97
2022-09-24T18:24:12.710Z,95301.44
2022-09-24T18:26:40.077Z,95309.34
2022-09-24T18:29:11.175Z,95317.09
2022-09-24T18:31:38.951Z,95322.09
2022-09-24T18:34:07.779Z,95317.22
2022-09-24T18:36:39.243Z,95328.75
2022-09-24T18:39:08.407Z,95309.03
2022-09-24T18:41:36.542Z,95323.94
2022-09-24T18:44:04.543Z,95318.41
2022-09-24T18:46:33.017Z,95309.88
2022-09-24T18:49:00.734Z,95315.47
2022-09-24T18:51:37.664Z,95320.94
2022-09-24T18:54:12.334Z,95313.53
2022-09-24T18:56:39.660Z,95315.09
2022-09-24T18:59:14.942Z,95306.31
2022-09-24T19:01:43.332Z,95306.97
2022-09-24T19:04:11.991Z,95299.91
2022-09-24T19:06:40.878Z,95307.59
2022-09-24T19:09:08.468Z,95310.06
2022-09-24T19:11:35.445Z,95316.59
2022-09-24T19:14:05.117Z,95313.16
2022-09-24T19:16:33.095Z,95320.88
2022-09-24T19:19:01.291Z,95319.97
2022-09-24T19:21:28.403Z,95318.66
2022-09-24T19:23:56.786Z,95305.78
2022-09-24T19:26:31.411Z,95304.56
2022-09-24T19:28:59.655Z,95316.56
2022-09-24T19:31:32.335Z,95325.63
2022-09-24T19:34:03.172Z,95317.78
2022-09-24T19:36:31.026Z,95314.41
2022-09-24T19:38:58.041Z,95320.03
2022-09-24T19:41:26.677Z,95326.84
2022-09-24T19:43:56.864Z,95326.56
2022-09-24T19:46:25.734Z,95329.09
2022-09-24T19:48:54.289Z,95311.81
2022-09-24T19:51:29.798Z,95318.94
2022-09-24T19:54:02.118Z,95328.91
2022-09-24T19:56:29.782Z,95329.00
2022-09-24T19:58:58.103Z,95313.19
2022-09-24T20:01:28.145Z,95331.34
2022-09-24T20:03:56.026Z,95328.16
2022-09-24T20:06:25.489Z,95321.69
2022-09-24T20:08:52.301Z,95342.09
2022-09-24T20:11:21.467Z,95322.75
2022-09-24T20:13:49.188Z,95338.50
2022-09-24T20:16:27.831Z,95337.38
2022-09-24T20:18:57.829Z,95342.53
2022-09-24T20:21:31.455Z,95333.44
2022-09-24T20:23:58.608Z,95350.13
2022-09-24T20:26:44.766Z,95331.06
2022-09-24T20:29:13.182Z,95336.09
2022-09-24T20:31:51.789Z,95346.28
2022-09-24T20:34:26.036Z,95337.06
2022-09-24T20:36:52.622Z,95336.59
2022-09-24T20:39:19.744Z,95351.78
2022-09-24T20:41:47.272Z,95353.75
2022-09-24T20:44:13.943Z,95352.06
2022-09-24T20:46:40.642Z,95348.28
2022-09-24T20:49:07.270Z,95343.56
2022-09-24T20:51:33.974Z,95344.91
2022-09-24T20:54:01.433Z,95358.09
2022-09-24T20:56:30.635Z,95352.00
2022-09-24T20:58:57.740Z,95353.50
2022-09-24T21:01:24.971Z,95358.16
2022-09-24T21:03:51.904Z,95354.63
2022-09-24T21:06:22.972Z,95358.84
2022-09-24T21:08:49.778Z,95362.97
2022-09-24T21:11:26.623Z,95358.28
2022-09-24T21:14:01.276Z,95365.25
2022-09-24T21:16:31.364Z,95363.28
2022-09-24T21:18:59.065Z,95358.66
2022-09-24T21:21:29.730Z,95373.47
2022-09-24T21:23:59.410Z,95365.25
2022-09-24T21:26:28.520Z,95359.63
2022-09-24T21:29:00.420Z,95312.81
2022-09-24T21:31:29.549Z,95349.47
2022-09-24T21:33:56.427Z,95364.13
2022-09-24T21:36:28.740Z,95362.72
2022-09-24T21:38:59.125Z,95352.19
2022-09-24T21:41:31.398Z,95347.16
2022-09-24T21:43:58.087Z,95356.53
2022-09-24T21:46:26.262Z,95352.06
2022-09-24T21:48:53.984Z,95355.41
2022-09-24T21:51:21.863Z,95352.44
2022-09-24T21:53:57.589Z,95347.50
2022-09-24T21:56:25.481Z,95356.28
2022-09-24T21:58:53.274Z,95352.00
2022-09-24T22:01:26.032Z,95350.91
2022-09-24T22:04:07.155Z,95338.94
2022-09-24T22:06:35.123Z,95362.00
2022-09-24T22:09:04.579Z,95361.41
2022-09-24T22:11:31.593Z,95359.34
2022-09-24T22:14:02.485Z,95362.44
2022-09-24T22:16:31.753Z,95359.75
2022-09-24T22:18:58.867Z,95364.84
2022-09-24T22:21:25.598Z,95370.28
2022-09-24T22:23:52.255Z,95371.47
2022-09-24T22:26:19.243Z,95371.41
2022-09-24T22:28:46.062Z,95368.47
2022-09-24T22:31:16.477Z,95366.09
2022-09-24T22:34:02.801Z,95368.09
2022-09-24T22:36:31.435Z,95369.88
2022-09-24T22:38:59.775Z,95349.56
2022-09-24T22:41:30.905Z,95367.59
2022-09-24T22:43:59.488Z,95365.19
2022-09-24T22:46:29.544Z,95369.88
2022-09-24T22:48:57.018Z,95371.06
2022-09-24T22:51:25.348Z,95361.81
2022-09-24T22:53:53.888Z,95358.69
2022-09-24T22:56:23.325Z,95363.69
2022-09-24T22:58:55.906Z,95345.25
2022-09-24T23:01:27.577Z,95360.75
2022-09-24T23:03:55.999Z,95367.59
2022-09-24T23:06:23.345Z,95370.63
2022-09-24T23:08:51.849Z,95378.56
2022-09-24T23:11:21.019Z,95373.44
2022-09-24T23:13:54.950Z,95357.38
2022-09-24T23:16:24.441Z,95368.25
2022-09-24T23:18:54.053Z,95355.75
2022-09-24T23:21:21.642Z,95351.63
2022-09-24T23:23:53.156Z,95357.38
2022-09-24T23:26:20.863Z,95361.84
2022-09-24T23:28:56.551Z,95354.97
2022-09-24T23:31:29.574Z,95364.00
2022-09-24T23:33:58.371Z,95353.78
2022-09-24T23:36:26.132Z,95358.31
2022-09-24T23:38:53.870Z,95355.97
2022-09-24T23:41:21.840Z,95356.28
2022-09-24T23:43:48.739Z,95354.53
2022-09-24T23:46:15.971Z,95345.94
2022-09-24T23:48:42.718Z,95359.56
2022-09-24T23:51:10.719Z,95352.91
2022-09-24T23:53:37.788Z,95351.63
2022-09-24T23:56:06.457Z,95354.88
2022-09-24T23:58:33.610Z,95343.38
